METAR Data
IDs: Format: Raw Decoded Include TAF

Data at: 0901 UTC 26 Jan 2020

K2P2 260855Z AUTO 29006KT 10SM OVC037 00/M01 A2977 RMK AO2 T10021014
K2P2 260835Z AUTO 29005KT 10SM OVC037 00/M01 A2977 RMK AO2 T10011012
K2P2 260815Z AUTO 29006KT 10SM OVC033 00/M01 A2977 RMK AO2 T10011012
K2P2 260755Z AUTO 29007KT 10SM OVC033 00/M01 A2977 RMK AO2 T10011011
K2P2 260735Z AUTO 30007KT 260V320 10SM OVC033 00/M01 A2977 RMK AO2 T00001010
K2P2 260715Z AUTO 29006KT 10SM SCT024 OVC035 00/M01 A2976 RMK AO2 T00001006
K2P2 260655Z AUTO 30005KT 10SM BKN021 OVC033 00/00 A2976 RMK AO2 T00001005
K2P2 260635Z AUTO 32006KT 10SM SCT017 SCT027 OVC033 00/00 A2977 RMK AO2 T00001005
K2P2 260615Z AUTO 31006KT 10SM SCT022 BKN029 OVC043 00/00 A2977 RMK AO2 T00001003
K2P2 260555Z AUTO 31005KT 10SM SCT016 BKN021 OVC027 00/00 A2977 RMK AO2 T00001002 10003 20000 400030000
K2P2 260535Z AUTO 31005KT 10SM SCT018 OVC037 00/00 A2977 RMK AO2 T00001001
K2P2 260515Z AUTO 30004KT 10SM SCT014 BKN022 OVC037 00/00 A2977 RMK AO2 T00000000
K2P2 260455Z AUTO 31004KT 10SM SCT004 BKN014 OVC020 00/00 A2977 RMK AO2 T00000000
K2P2 260435Z AUTO 00000KT 10SM BKN004 BKN009 OVC020 00/00 A2977 RMK AO2 T00000000
K2P2 260415Z AUTO 31004KT 10SM SCT004 BKN009 OVC012 00/00 A2977 RMK AO2 T00000000
K2P2 260355Z AUTO 31005KT 10SM SCT004 SCT008 OVC014 00/00 A2977 RMK AO2 T00010001
K2P2 260335Z AUTO 30003KT 7SM -RA SCT003 SCT010 OVC014 00/00 A2977 RMK AO2 T00010001
K2P2 260315Z AUTO 30003KT 10SM SCT003 BKN013 OVC060 00/00 A2977 RMK AO2 T00000000
K2P2 260255Z AUTO 30003KT 10SM SCT019 SCT030 OVC060 00/00 A2977 RMK AO2 T00000000
K2P2 260235Z AUTO 30004KT 10SM SCT050 OVC060 00/00 A2977 RMK AO2 T00000000
K2P2 260215Z AUTO 30003KT 10SM BKN050 OVC055 00/00 A2977 RMK AO2 T00000000
K2P2 260155Z AUTO 31003KT 10SM SCT031 SCT044 OVC055 00/00 A2976 RMK AO2 T00010000
K2P2 260135Z AUTO 32003KT 10SM SCT005 OVC029 00/00 A2977 RMK AO2 T00010001
K2P2 260115Z AUTO 33005KT 10SM BKN003 BKN013 OVC027 00/00 A2977 RMK AO2 T00010001
K2P2 260055Z AUTO 33004KT 10SM BKN003 BKN013 OVC027 00/00 A2977 RMK AO2 T00030003
K2P2 260035Z AUTO 33006KT 7SM BKN005 OVC013 00/00 A2977 RMK AO2 T00020002
K2P2 260015Z AUTO 32004KT 7SM OVC007 00/00 A2977 RMK AO2 T00020002
K2P2 252355Z AUTO 31003KT 10SM OVC011 00/00 A2977 RMK AO2 T00010001 10002 20000
K2P2 252335Z AUTO 31003KT 7SM OVC011 00/00 A2977 RMK AO2 T00010001
K2P2 252315Z AUTO 00000KT 5SM BR OVC011 00/00 A2977 RMK AO2 T00010001
K2P2 252255Z AUTO 29003KT 4SM BR OVC011 00/00 A2977 RMK AO2 T00000000
K2P2 252235Z AUTO 00000KT 4SM -DZ OVC011 00/00 A2976 RMK AO2 T00000000
K2P2 252215Z AUTO 00000KT 10SM BKN013 OVC018 00/00 A2976 RMK AO2 T00010001
K2P2 252155Z AUTO 00000KT 4SM BR OVC011 00/00 A2976 RMK AO2 T00000000
K2P2 252135Z AUTO 34003KT 4SM BR OVC009 00/00 A2976 RMK AO2 T00020002
K2P2 252115Z AUTO 33004KT 10SM OVC009 00/00 A2976 RMK AO2 T00020001
K2P2 252055Z AUTO 35004KT 10SM OVC004 00/00 A2976 RMK AO2 T00010001
K2P2 252035Z AUTO 35004KT 10SM OVC004 00/00 A2975 RMK AO2 T00010001
K2P2 252015Z AUTO 01004KT 10SM BKN004 OVC016 00/00 A2975 RMK AO2 T00000000
K2P2 251955Z AUTO 36004KT 7SM -SN OVC002 00/00 A2975 RMK AO2 T00000000
K2P2 251935Z AUTO 01004KT 7SM OVC002 00/00 A2975 RMK AO2 T00000000
K2P2 251915Z AUTO 01004KT 4SM -RA OVC002 00/00 A2975 RMK AO2 T00000000
K2P2 251855Z AUTO 01005KT 5SM -RA OVC002 00/00 A2975 RMK AO2 T00000000
K2P2 251835Z AUTO 01006KT 5SM BR OVC002 00/00 A2975 RMK AO2 T00000000
K2P2 251815Z AUTO 01005KT 1 1/2SM BR OVC002 00/00 A2975 RMK AO2 T00000000
K2P2 251755Z AUTO 01006KT 1 1/4SM BR OVC002 00/00 A2976 RMK AO2 T00000000 10003 20000
K2P2 251735Z AUTO 01005KT 3/4SM BR OVC002 00/00 A2976 RMK AO2 T00000000
K2P2 251715Z AUTO 01006KT 1/4SM FG OVC002 00/00 A2977 RMK AO2 T00000000
K2P2 251655Z AUTO 01006KT 1/2SM FG OVC002 00/00 A2977 RMK AO2 T00000000
K2P2 251635Z AUTO 01006KT 1/2SM FG OVC002 00/00 A2978 RMK AO2 T00000000
K2P2 251615Z AUTO 01005KT 1/2SM FG OVC002 00/00 A2978 RMK AO2 T00000000
K2P2 251555Z AUTO 03007KT 1/2SM FG OVC002 00/00 A2977 RMK AO2 T00000000
K2P2 251535Z AUTO 04006KT 3/4SM BR OVC002 00/00 A2977 RMK AO2 T00000000
K2P2 251515Z AUTO 03005KT 3/4SM BR OVC002 00/00 A2976 RMK AO2 T00000000
K2P2 251455Z AUTO 03005KT 1SM BR OVC002 00/00 A2976 RMK AO2 T00000000
K2P2 251435Z AUTO 04006KT 1/2SM FG OVC002 00/00 A2976 RMK AO2 T00000000
K2P2 251415Z AUTO 04005KT 3/4SM BR OVC002 00/00 A2976 RMK AO2 T00000000
K2P2 251355Z AUTO 03005KT 3/4SM BR OVC002 00/00 A2977 RMK AO2 T00000000
K2P2 251335Z AUTO 01004KT 1/4SM FG OVC002 00/00 A2976 RMK AO2 T00000000
K2P2 251315Z AUTO 01003KT 1 3/4SM BR OVC002 00/00 A2976 RMK AO2 T00000000
K2P2 251255Z AUTO 02004KT 2SM -DZ OVC002 00/00 A2975 RMK AO2 T00000000
K2P2 251235Z AUTO 01005KT 1 1/2SM UP OVC004 00/00 A2976 RMK AO2 T00000000
K2P2 251215Z AUTO 00000KT 2 1/2SM BR OVC006 00/00 A2975 RMK AO2 T00020002
K2P2 251155Z AUTO 00000KT 2 1/2SM BR OVC004 00/00 A2975 RMK AO2 60007 70022 T00030003 10003 20000
K2P2 251135Z AUTO 00000KT 7SM OVC004 00/00 A2975 RMK AO2 T00030003
K2P2 251115Z AUTO 05003KT 10SM OVC002 00/00 A2975 RMK AO2 T00020002
K2P2 251055Z AUTO 00000KT 7SM -RA OVC002 00/00 A2975 RMK AO2 T00020002
K2P2 251035Z AUTO 00000KT 7SM UP OVC002 00/00 A2975 RMK AO2 T00000000
K2P2 251015Z AUTO 00000KT 10SM -RA OVC002 00/00 A2975 RMK AO2 T00000000
K2P2 250955Z AUTO 00000KT 10SM OVC002 00/00 A2975 RMK AO2 T00000000
K2P2 250935Z AUTO 04003KT 10SM OVC002 00/00 A2975 RMK AO2 T00000000
K2P2 250915Z AUTO 04003KT 10SM -DZ OVC002 00/00 A2975 RMK AO2 T00000000
K2P2 250855Z AUTO 05003KT 10SM OVC004 00/00 A2976 RMK AO2 P0001 60007 T00000000
K2P2 250835Z AUTO 06004KT 5SM -SN OVC004 00/00 A2976 RMK AO2 P0001 T00000000
K2P2 250815Z AUTO 06004KT 4SM -SN OVC004 00/00 A2977 RMK AO2 T00000000
K2P2 250755Z AUTO 07006KT 1 1/4SM -SN OVC004 00/00 A2977 RMK AO2 P0005 T00000000
K2P2 250735Z AUTO 06005KT 2SM -SN OVC004 00/00 A2977 RMK AO2 P0003 T00000000
K2P2 250715Z AUTO 07005KT 1 1/4SM -SN OVC004 00/00 A2978 RMK AO2 P0002 T00000000
K2P2 250655Z AUTO 06004KT 4SM -SN OVC004 00/00 A2978 RMK AO2 P0001 T00000000
K2P2 250635Z AUTO 06005KT 5SM -SN OVC004 00/00 A2979 RMK AO2 P0001 T00000000
K2P2 250615Z AUTO 06007KT 3SM -SN OVC004 00/00 A2980 RMK AO2 T00000000
K2P2 250555Z AUTO 06006KT 1 1/2SM -SN OVC004 00/00 A2980 RMK AO2 P0003 60010 T00000000 10006 20000 400120000
K2P2 250535Z AUTO 07008KT 2SM -SN OVC004 00/00 A2981 RMK AO2 P0001 T00000000
K2P2 250515Z AUTO 07008KT 4SM -RA OVC004 00/00 A2982 RMK AO2 T00010001
K2P2 250455Z AUTO 07007KT 040V100 4SM -SN OVC004 00/00 A2982 RMK AO2 P0001 T00020001
K2P2 250435Z AUTO 07006KT 7SM -SN OVC006 00/00 A2982 RMK AO2 T00030001
K2P2 250415Z AUTO 07005KT 5SM -SN OVC004 00/00 A2982 RMK AO2 T00000000
K2P2 250355Z AUTO 05006KT 4SM -SN OVC004 00/00 A2983 RMK AO2 P0002 T00000000
K2P2 250335Z AUTO 06007KT 4SM -SN OVC006 00/00 A2983 RMK AO2 P0001 T00010000
K2P2 250315Z AUTO 06006KT 4SM -SN OVC004 00/00 A2984 RMK AO2 P0001 T00000000
K2P2 250255Z AUTO 06008G15KT 2 1/2SM -SN OVC004 00/00 A2985 RMK AO2 P0003 60004 T00000000
K2P2 250235Z AUTO 06007KT 030V100 3SM -SN OVC004 00/00 A2986 RMK AO2 P0002 T00010000
K2P2 250215Z AUTO 06007KT 5SM -SN OVC004 00/00 A2986 RMK AO2 P0001 T00030002
K2P2 250155Z AUTO 07007KT 5SM -RA OVC004 01/01 A2987 RMK AO2 T00050005
K2P2 250135Z AUTO 06007KT 7SM -DZ OVC004 01/01 A2987 RMK AO2 T00060006
K2P2 250115Z AUTO 06006KT 7SM OVC004 01/01 A2988 RMK AO2 T00060006
K2P2 250055Z AUTO 06007KT 040V100 7SM -RA OVC004 01/01 A2989 RMK AO2 P0001 T00060006
K2P2 250035Z AUTO 06007KT 040V100 7SM -RA OVC004 01/01 A2989 RMK AO2 P0001 T00060005
K2P2 250015Z AUTO 08008KT 050V120 5SM -SN OVC004 01/01 A2990 RMK AO2 T00050005
K2P2 242355Z AUTO 07008KT 030V090 5SM -RA OVC004 01/01 A2990 RMK AO2 P0001 60003 T00050005 10012 20003
K2P2 242335Z AUTO 07009G14KT 7SM -RA OVC004 01/01 A2990 RMK AO2 T00060005
K2P2 242315Z AUTO 06008KT 7SM -RA OVC004 01/01 A2990 RMK AO2 T00050005
K2P2 242255Z AUTO 06006KT 5SM -RA OVC004 00/00 A2991 RMK AO2 P0001 T00030003
K2P2 242235Z AUTO 06007KT 5SM -RA OVC004 01/00 A2991 RMK AO2 P0001 T00050004
K2P2 242215Z AUTO 06008KT 4SM UP OVC006 01/00 A2992 RMK AO2 T00050003
K2P2 242155Z AUTO 05007KT 020V080 4SM -SN OVC006 01/01 A2992 RMK AO2 P0001 T00050005
K2P2 242135Z AUTO 06007KT 5SM -RA OVC006 01/01 A2992 RMK AO2 P0001 T00070005
K2P2 242115Z AUTO 06008KT 5SM -RA OVC006 01/01 A2993 RMK AO2 T00100008